createdAt,value
2017-05-28T13:51:28.316Z,957.98
2017-05-28T13:52:28.271Z,957.99
2017-05-28T13:53:28.303Z,957.94
2017-05-28T13:54:28.281Z,957.96
2017-05-28T13:55:28.287Z,957.99
2017-05-28T13:56:28.292Z,957.92
2017-05-28T13:57:28.297Z,957.94
2017-05-28T13:58:28.301Z,957.93
2017-05-28T13:59:28.307Z,957.93
2017-05-28T14:00:28.321Z,957.91
2017-05-28T14:01:28.316Z,957.9
2017-05-28T14:02:28.322Z,957.89
2017-05-28T14:03:28.328Z,957.86
2017-05-28T14:04:28.334Z,957.89
2017-05-28T14:05:28.336Z,957.83
2017-05-28T14:06:28.343Z,957.81
2017-05-28T14:07:28.349Z,957.84
2017-05-28T14:08:28.372Z,957.81
2017-05-28T14:09:28.357Z,957.81
2017-05-28T14:10:28.363Z,957.8
2017-05-28T14:11:28.369Z,957.8
2017-05-28T14:12:28.373Z,957.81
2017-05-28T14:13:28.377Z,957.75
2017-05-28T14:14:28.383Z,957.69
2017-05-28T14:15:28.389Z,957.73
2017-05-28T14:16:28.392Z,957.74
2017-05-28T14:17:28.400Z,957.76
2017-05-28T14:18:28.404Z,957.82
2017-05-28T14:19:28.409Z,957.76
2017-05-28T14:20:28.413Z,957.74
2017-05-28T14:21:28.418Z,957.75
2017-05-28T14:22:28.424Z,957.74
2017-05-28T14:23:28.427Z,957.73
2017-05-28T14:24:28.433Z,957.71
2017-05-28T14:25:28.437Z,957.73
2017-05-28T14:26:28.444Z,957.67
2017-05-28T14:27:28.453Z,957.64
2017-05-28T14:28:28.453Z,957.72
2017-05-28T14:29:28.466Z,957.67
2017-05-28T14:30:28.464Z,957.64
2017-05-28T14:31:28.467Z,957.65
2017-05-28T14:32:28.473Z,957.67
2017-05-28T14:33:28.500Z,957.64
2017-05-28T14:34:28.483Z,957.62
2017-05-28T14:35:28.489Z,957.64
2017-05-28T14:36:28.494Z,957.61
2017-05-28T14:37:28.501Z,957.57
2017-05-28T14:38:28.506Z,957.62
2017-05-28T14:39:28.511Z,957.57
2017-05-28T14:40:28.515Z,957.58
2017-05-28T14:41:28.520Z,957.55
2017-05-28T14:42:28.523Z,957.55
2017-05-28T14:43:28.551Z,957.59
2017-05-28T14:44:28.557Z,957.61
2017-05-28T14:45:28.540Z,957.58
2017-05-28T14:46:28.546Z,957.59
2017-05-28T14:47:28.550Z,957.58
2017-05-28T14:48:28.555Z,957.58
2017-05-28T14:49:28.561Z,957.61
2017-05-28T14:50:28.566Z,957.57
2017-05-28T14:51:28.571Z,957.52
2017-05-28T14:52:28.578Z,957.5
2017-05-28T14:53:28.581Z,957.48
2017-05-28T14:54:28.586Z,957.45
2017-05-28T14:55:28.591Z,957.43
2017-05-28T14:56:28.600Z,957.46
2017-05-28T14:57:28.602Z,957.44
2017-05-28T14:58:28.606Z,957.41
2017-05-28T14:59:28.612Z,957.4
2017-05-28T15:00:28.615Z,957.34
2017-05-28T15:01:28.621Z,957.35
2017-05-28T15:02:28.627Z,957.36
2017-05-28T15:03:28.632Z,957.36
2017-05-28T15:04:28.636Z,957.36
2017-05-28T15:05:28.641Z,957.34
2017-05-28T15:06:28.655Z,957.32
2017-05-28T15:07:28.650Z,957.31
2017-05-28T15:08:28.656Z,957.31
2017-05-28T15:09:28.663Z,957.31
2017-05-28T15:10:28.667Z,957.28
2017-05-28T15:11:28.671Z,957.31
2017-05-28T15:12:28.686Z,957.31
2017-05-28T15:13:28.681Z,957.29
2017-05-28T15:14:28.695Z,957.27
2017-05-28T15:15:28.691Z,957.27
2017-05-28T15:16:28.697Z,957.28
2017-05-28T15:17:28.702Z,957.26
2017-05-28T15:18:28.705Z,957.29
2017-05-28T15:19:28.709Z,957.26
2017-05-28T15:20:28.715Z,957.26
2017-05-28T15:21:28.723Z,957.23
2017-05-28T15:22:28.726Z,957.23
2017-05-28T15:23:28.731Z,957.2
2017-05-28T15:24:28.737Z,957.22
2017-05-28T15:25:28.741Z,957.23
2017-05-28T15:26:28.747Z,957.2
2017-05-28T15:27:28.753Z,957.2
2017-05-28T15:28:28.757Z,957.24
2017-05-28T15:29:28.762Z,957.19
2017-05-28T15:30:28.767Z,957.19
2017-05-28T15:31:28.772Z,957.13
2017-05-28T15:32:28.778Z,957.12
2017-05-28T15:33:30.589Z,957.12
2017-05-28T15:34:28.805Z,957.11
2017-05-28T15:35:28.809Z,957.07
2017-05-28T15:36:28.797Z,957.1
2017-05-28T15:37:28.803Z,957.11
2017-05-28T15:38:28.811Z,957.1
2017-05-28T15:39:28.815Z,957.08
2017-05-28T15:40:28.817Z,957.08
2017-05-28T15:41:28.822Z,957.05
2017-05-28T15:42:28.828Z,957.06
2017-05-28T15:43:28.833Z,957.02
2017-05-28T15:44:28.838Z,956.98
2017-05-28T15:45:28.842Z,956.98
2017-05-28T15:46:28.848Z,956.93
2017-05-28T15:47:28.853Z,956.92
2017-05-28T15:48:28.858Z,956.89
2017-05-28T15:49:28.863Z,956.92
2017-05-28T15:50:28.869Z,956.93
2017-05-28T15:51:28.873Z,956.91
2017-05-28T15:52:28.879Z,956.92
2017-05-28T15:53:28.883Z,956.94
2017-05-28T15:54:28.889Z,956.9
2017-05-28T15:55:28.893Z,956.92
2017-05-28T15:56:28.898Z,956.91
2017-05-28T15:57:28.904Z,956.9
2017-05-28T15:58:28.908Z,956.89
2017-05-28T15:59:28.913Z,956.91
2017-05-28T16:00:28.920Z,956.88
2017-05-28T16:01:28.924Z,956.88
2017-05-28T16:02:28.928Z,956.88
2017-05-28T16:03:28.989Z,956.89
2017-05-28T16:04:28.940Z,956.92
2017-05-28T16:05:28.944Z,956.91
2017-05-28T16:06:28.949Z,956.9
2017-05-28T16:07:28.955Z,956.85
2017-05-28T16:08:28.970Z,956.85
2017-05-28T16:09:28.964Z,956.81
2017-05-28T16:10:28.978Z,956.8
2017-05-28T16:11:28.974Z,956.81
2017-05-28T16:12:28.979Z,956.82
2017-05-28T16:13:28.984Z,956.82
2017-05-28T16:14:28.989Z,956.83
2017-05-28T16:15:28.994Z,956.83
2017-05-28T16:16:28.999Z,956.84
2017-05-28T16:17:29.019Z,956.88
2017-05-28T16:18:29.009Z,956.85
2017-05-28T16:19:29.015Z,956.85
2017-05-28T16:20:29.018Z,956.84
2017-05-28T16:21:29.023Z,956.8
2017-05-28T16:22:29.029Z,956.84
2017-05-28T16:23:29.034Z,956.79
2017-05-28T16:24:29.038Z,956.78
2017-05-28T16:25:29.044Z,956.75
2017-05-28T16:26:29.049Z,956.75
2017-05-28T16:27:29.053Z,956.77
2017-05-28T16:28:29.058Z,956.77
2017-05-28T16:29:29.063Z,956.77
2017-05-28T16:30:29.068Z,956.72
2017-05-28T16:31:29.072Z,956.77
2017-05-28T16:32:29.078Z,956.74
2017-05-28T16:33:29.087Z,956.71
2017-05-28T16:34:29.093Z,956.73
2017-05-28T16:35:29.093Z,956.73
2017-05-28T16:36:29.105Z,956.72
2017-05-28T16:37:29.165Z,956.7
2017-05-28T16:38:29.108Z,956.72
2017-05-28T16:39:29.110Z,956.76
2017-05-28T16:40:29.117Z,956.71
2017-05-28T16:41:29.121Z,956.77
2017-05-28T16:42:29.126Z,956.77
2017-05-28T16:43:29.132Z,956.76
2017-05-28T16:44:29.139Z,956.78
2017-05-28T16:45:29.160Z,956.73
2017-05-28T16:46:29.238Z,956.75
2017-05-28T16:47:29.154Z,956.71
2017-05-28T16:48:29.177Z,956.72
2017-05-28T16:49:29.161Z,956.74
2017-05-28T16:50:29.165Z,956.76
2017-05-28T16:51:29.181Z,956.76
2017-05-28T16:52:29.187Z,956.8
2017-05-28T16:53:29.192Z,956.8
2017-05-28T16:54:29.201Z,956.76
2017-05-28T16:55:29.190Z,956.77
2017-05-28T16:56:29.213Z,956.78
2017-05-28T16:57:29.218Z,956.79
2017-05-28T16:58:29.205Z,956.78
2017-05-28T16:59:29.210Z,956.76
2017-05-28T17:00:29.214Z,956.76
2017-05-28T17:01:29.219Z,956.72
2017-05-28T17:02:29.248Z,956.72
2017-05-28T17:03:29.246Z,956.75
2017-05-28T17:04:29.234Z,956.73
2017-05-28T17:05:31.014Z,956.74
2017-05-28T17:06:29.245Z,956.75
2017-05-28T17:07:29.249Z,956.71
2017-05-28T17:08:29.271Z,956.76
2017-05-28T17:09:29.396Z,956.74
2017-05-28T17:10:29.264Z,956.78
2017-05-28T17:11:29.299Z,956.8
2017-05-28T17:12:29.324Z,956.8
2017-05-28T17:13:29.296Z,956.82
2017-05-28T17:14:29.508Z,956.81
2017-05-28T17:15:29.303Z,956.81
2017-05-28T17:16:29.365Z,956.77
2017-05-28T17:17:29.428Z,956.77
2017-05-28T17:18:29.378Z,956.74
2017-05-28T17:19:29.462Z,956.72
2017-05-28T17:20:29.344Z,956.68
2017-05-28T17:21:29.333Z,956.67
2017-05-28T17:22:29.340Z,956.62
2017-05-28T17:23:29.378Z,956.63
2017-05-28T17:24:29.372Z,956.64
2017-05-28T17:25:29.377Z,956.64
2017-05-28T17:26:29.458Z,956.64
2017-05-28T17:27:29.455Z,956.62
2017-05-28T17:28:29.416Z,956.64
2017-05-28T17:29:29.418Z,956.7
2017-05-28T17:30:29.509Z,956.65
2017-05-28T17:31:29.450Z,956.65
2017-05-28T17:32:29.451Z,956.62
2017-05-28T17:33:29.458Z,956.6
2017-05-28T17:34:29.492Z,956.62
2017-05-28T17:35:29.599Z,956.61
2017-05-28T17:36:29.474Z,956.6
2017-05-28T17:37:29.506Z,956.58
2017-05-28T17:38:29.471Z,956.61
2017-05-28T17:39:29.504Z,956.65
2017-05-28T17:40:29.527Z,956.64
2017-05-28T17:41:29.601Z,956.66
2017-05-28T17:42:29.576Z,956.65
2017-05-28T17:43:29.583Z,956.61
2017-05-28T17:44:29.559Z,956.63
2017-05-28T17:45:29.559Z,956.62
2017-05-28T17:46:29.538Z,956.6
2017-05-28T17:47:29.580Z,956.6
2017-05-28T17:48:29.555Z,956.62
2017-05-28T17:49:29.618Z,956.61
2017-05-28T17:50:29.643Z,956.56
2017-05-28T17:51:29.616Z,956.59
2017-05-28T17:52:29.647Z,956.59
2017-05-28T17:53:29.653Z,956.56
2017-05-28T17:54:29.673Z,956.6
2017-05-28T17:55:29.649Z,956.59
2017-05-28T17:56:29.666Z,956.58
2017-05-28T17:57:29.647Z,956.56
2017-05-28T17:58:29.642Z,956.59
2017-05-28T17:59:29.702Z,956.59
2017-05-28T18:00:29.683Z,956.6
2017-05-28T18:01:29.800Z,956.59
2017-05-28T18:02:29.768Z,956.63
2017-05-28T18:03:29.679Z,956.64
2017-05-28T18:04:29.687Z,956.6
2017-05-28T18:05:29.751Z,956.61
2017-05-28T18:06:29.722Z,956.58
2017-05-28T18:07:29.711Z,956.55
2017-05-28T18:08:29.716Z,956.54
2017-05-28T18:09:29.761Z,956.51
2017-05-28T18:10:29.728Z,956.53
2017-05-28T18:11:29.736Z,956.53
2017-05-28T18:12:29.865Z,956.5
2017-05-28T18:13:29.834Z,956.52
2017-05-28T18:14:29.755Z,956.53
2017-05-28T18:15:29.758Z,956.47
2017-05-28T18:16:29.766Z,956.53
2017-05-28T18:17:29.771Z,956.46
2017-05-28T18:18:29.915Z,956.47
2017-05-28T18:19:29.896Z,956.44
2017-05-28T18:20:29.787Z,956.46
2017-05-28T18:21:29.791Z,956.46
2017-05-28T18:22:29.797Z,956.49
2017-05-28T18:23:29.803Z,956.44
2017-05-28T18:24:29.806Z,956.45
2017-05-28T18:25:29.811Z,956.48
2017-05-28T18:26:29.815Z,956.47
2017-05-28T18:27:29.819Z,956.5
2017-05-28T18:28:29.831Z,956.5
2017-05-28T18:29:29.828Z,956.51
2017-05-28T18:30:29.831Z,956.56
2017-05-28T18:31:29.836Z,956.57
2017-05-28T18:32:29.946Z,956.57
2017-05-28T18:33:29.897Z,956.57
2017-05-28T18:34:29.907Z,956.57
2017-05-28T18:35:29.891Z,956.58
2017-05-28T18:36:29.974Z,956.57
2017-05-28T18:37:29.984Z,956.58
2017-05-28T18:38:29.927Z,956.57
2017-05-28T18:39:29.871Z,956.58
2017-05-28T18:40:30.026Z,956.59
2017-05-28T18:41:29.870Z,956.59
2017-05-28T18:42:29.876Z,956.59
2017-05-28T18:43:29.877Z,956.6
2017-05-28T18:44:29.878Z,956.62
2017-05-28T18:45:29.968Z,956.66
2017-05-28T18:46:29.889Z,956.63
2017-05-28T18:47:29.885Z,956.65
2017-05-28T18:48:29.888Z,956.67
2017-05-28T18:49:29.890Z,956.67
2017-05-28T18:50:29.895Z,956.7
2017-05-28T18:51:29.900Z,956.71
2017-05-28T18:52:29.932Z,956.7
2017-05-28T18:53:29.899Z,956.71
2017-05-28T18:54:29.908Z,956.77
2017-05-28T18:55:29.905Z,956.74
2017-05-28T18:56:29.921Z,956.76
2017-05-28T18:57:29.937Z,956.74
2017-05-28T18:58:30.019Z,956.74
2017-05-28T18:59:29.955Z,956.7
2017-05-28T19:00:29.942Z,956.72
2017-05-28T19:01:29.911Z,956.72
2017-05-28T19:02:29.938Z,956.75
2017-05-28T19:03:29.962Z,956.76
2017-05-28T19:04:29.917Z,956.77
2017-05-28T19:05:29.919Z,956.76
2017-05-28T19:06:29.980Z,956.79
2017-05-28T19:07:29.923Z,956.79
2017-05-28T19:08:29.921Z,956.78
2017-05-28T19:09:29.922Z,956.78
2017-05-28T19:10:30.029Z,956.83
2017-05-28T19:11:29.925Z,956.79
2017-05-28T19:12:30.057Z,956.82
2017-05-28T19:13:29.947Z,956.77
2017-05-28T19:14:29.946Z,956.81
2017-05-28T19:15:29.953Z,956.77
2017-05-28T19:16:29.930Z,956.79
2017-05-28T19:17:29.930Z,956.78
2017-05-28T19:18:29.931Z,956.82
2017-05-28T19:19:29.933Z,956.87
2017-05-28T19:20:29.931Z,956.88
2017-05-28T19:21:29.932Z,956.91
2017-05-28T19:22:29.934Z,956.94
2017-05-28T19:23:29.934Z,956.94
2017-05-28T19:24:29.935Z,956.95
2017-05-28T19:25:29.937Z,956.98
2017-05-28T19:26:29.936Z,956.97
2017-05-28T19:27:29.939Z,956.92
2017-05-28T19:28:29.938Z,956.91
2017-05-28T19:29:29.938Z,956.96
2017-05-28T19:30:29.943Z,956.97
2017-05-28T19:31:29.958Z,956.98
2017-05-28T19:32:29.940Z,956.96
2017-05-28T19:33:29.977Z,957
2017-05-28T19:34:29.938Z,957.02
2017-05-28T19:35:29.938Z,957.03
2017-05-28T19:36:29.939Z,957.02
2017-05-28T19:37:29.939Z,957.03
2017-05-28T19:38:29.938Z,957
2017-05-28T19:39:29.940Z,957
2017-05-28T19:40:29.939Z,956.99
2017-05-28T19:41:29.939Z,956.96
2017-05-28T19:42:29.939Z,956.93
2017-05-28T19:43:29.939Z,956.95
2017-05-28T19:44:29.937Z,956.94
2017-05-28T19:45:29.939Z,956.93
2017-05-28T19:46:29.938Z,956.96
2017-05-28T19:47:29.939Z,956.97
2017-05-28T19:48:29.957Z,956.96
2017-05-28T19:49:29.958Z,956.95
2017-05-28T19:50:29.937Z,956.93
2017-05-28T19:51:29.937Z,956.98
2017-05-28T19:52:29.936Z,956.97
2017-05-28T19:53:29.958Z,956.98
2017-05-28T19:54:29.937Z,957.01
2017-05-28T19:55:29.936Z,956.98
2017-05-28T19:56:29.936Z,956.97
2017-05-28T19:57:29.937Z,957.03
2017-05-28T19:58:29.947Z,957.01
2017-05-28T19:59:29.934Z,957
2017-05-28T20:00:30.051Z,957.03
2017-05-28T20:01:29.933Z,956.99
2017-05-28T20:02:29.961Z,956.99
2017-05-28T20:03:29.933Z,957
2017-05-28T20:04:30.050Z,957
2017-05-28T20:05:30.075Z,957.01
2017-05-28T20:06:29.933Z,957
2017-05-28T20:07:29.931Z,956.98
2017-05-28T20:08:29.931Z,956.94
2017-05-28T20:09:29.930Z,956.96
2017-05-28T20:10:29.930Z,956.95
2017-05-28T20:11:29.929Z,956.97
2017-05-28T20:12:29.988Z,956.95
2017-05-28T20:13:29.928Z,956.94
2017-05-28T20:14:29.925Z,956.94
2017-05-28T20:15:29.927Z,956.93
2017-05-28T20:16:29.928Z,956.9
2017-05-28T20:17:30.075Z,956.92
2017-05-28T20:18:29.924Z,956.92
2017-05-28T20:19:29.922Z,956.91
2017-05-28T20:20:30.083Z,956.91
2017-05-28T20:21:30.111Z,956.93
2017-05-28T20:22:29.920Z,956.89
2017-05-28T20:23:29.932Z,956.93
2017-05-28T20:24:29.922Z,956.95
2017-05-28T20:25:29.917Z,956.94
2017-05-28T20:26:30.083Z,956.94
2017-05-28T20:27:29.919Z,956.93
2017-05-28T20:28:29.916Z,956.96
2017-05-28T20:29:29.930Z,956.95
2017-05-28T20:30:29.913Z,956.93
2017-05-28T20:31:29.913Z,956.92
2017-05-28T20:32:29.911Z,956.96
2017-05-28T20:33:29.912Z,956.95
2017-05-28T20:34:29.953Z,956.94
2017-05-28T20:35:29.909Z,956.95
2017-05-28T20:36:30.005Z,956.96
2017-05-28T20:37:29.907Z,956.94
2017-05-28T20:38:29.922Z,956.9
2017-05-28T20:39:29.906Z,956.91
2017-05-28T20:40:29.904Z,956.92
2017-05-28T20:41:30.023Z,956.89
2017-05-28T20:42:29.903Z,956.91
2017-05-28T20:43:29.901Z,956.93
2017-05-28T20:44:29.901Z,956.97
2017-05-28T20:45:29.900Z,956.99
2017-05-28T20:46:29.927Z,956.93
2017-05-28T20:47:29.896Z,956.93
2017-05-28T20:48:29.915Z,956.9
2017-05-28T20:49:29.917Z,956.93
2017-05-28T20:50:29.894Z,956.92
2017-05-28T20:51:29.893Z,956.94
2017-05-28T20:52:29.892Z,956.9
2017-05-28T20:53:29.890Z,956.89
2017-05-28T20:54:29.889Z,956.89
2017-05-28T20:55:29.888Z,956.87
2017-05-28T20:56:29.888Z,956.85
2017-05-28T20:57:29.904Z,956.85
2017-05-28T20:58:29.884Z,956.83
2017-05-28T20:59:29.884Z,956.85
2017-05-28T21:00:29.882Z,956.86
2017-05-28T21:01:29.883Z,956.85
2017-05-28T21:02:29.894Z,956.87
2017-05-28T21:03:29.879Z,956.84
2017-05-28T21:04:29.895Z,956.87
2017-05-28T21:05:29.876Z,956.87
2017-05-28T21:06:29.875Z,956.88
2017-05-28T21:07:29.873Z,956.88
2017-05-28T21:08:29.873Z,956.89
2017-05-28T21:09:29.871Z,956.89
2017-05-28T21:10:29.875Z,956.86
2017-05-28T21:11:29.870Z,956.88
2017-05-28T21:12:29.868Z,956.87
2017-05-28T21:13:29.867Z,956.85
2017-05-28T21:14:29.871Z,956.84
2017-05-28T21:15:29.864Z,956.83
2017-05-28T21:16:29.862Z,956.84
2017-05-28T21:17:29.883Z,956.84
2017-05-28T21:18:29.860Z,956.84
2017-05-28T21:19:29.859Z,956.8
2017-05-28T21:20:29.857Z,956.83
2017-05-28T21:21:29.856Z,956.82
2017-05-28T21:22:29.855Z,956.81
2017-05-28T21:23:29.854Z,956.79
2017-05-28T21:24:29.857Z,956.78
2017-05-28T21:25:29.851Z,956.81
2017-05-28T21:26:29.850Z,956.8
2017-05-28T21:27:29.848Z,956.79
2017-05-28T21:28:29.846Z,956.82
2017-05-28T21:29:29.845Z,956.85
2017-05-28T21:30:29.845Z,956.85
2017-05-28T21:31:29.858Z,956.87
2017-05-28T21:32:29.841Z,956.88
2017-05-28T21:33:29.839Z,956.88
2017-05-28T21:34:29.838Z,956.86
2017-05-28T21:35:29.836Z,956.9
2017-05-28T21:36:29.834Z,956.84
2017-05-28T21:37:29.834Z,956.83
2017-05-28T21:38:29.841Z,956.86
2017-05-28T21:39:29.846Z,956.8
2017-05-28T21:40:29.829Z,956.83
2017-05-28T21:41:29.828Z,956.82
2017-05-28T21:42:29.826Z,956.8
2017-05-28T21:43:29.827Z,956.79
2017-05-28T21:44:29.822Z,956.81
2017-05-28T21:45:29.822Z,956.8
2017-05-28T21:46:29.820Z,956.78
2017-05-28T21:47:29.819Z,956.79
2017-05-28T21:48:29.819Z,956.78
2017-05-28T21:49:29.815Z,956.8
2017-05-28T21:50:29.815Z,956.78
2017-05-28T21:51:29.813Z,956.78
2017-05-28T21:52:29.824Z,956.74
2017-05-28T21:53:29.810Z,956.78
2017-05-28T21:54:29.809Z,956.79
2017-05-28T21:55:29.805Z,956.76
2017-05-28T21:56:29.805Z,956.76
2017-05-28T21:57:29.810Z,956.79
2017-05-28T21:58:29.816Z,956.78
2017-05-28T21:59:29.800Z,956.78
2017-05-28T22:00:29.796Z,956.81
2017-05-28T22:01:29.796Z,956.82
2017-05-28T22:02:29.796Z,956.8
2017-05-28T22:03:29.794Z,956.78
2017-05-28T22:04:29.792Z,956.78
2017-05-28T22:05:29.789Z,956.77
2017-05-28T22:06:29.787Z,956.79
2017-05-28T22:07:29.785Z,956.78
2017-05-28T22:08:29.783Z,956.82
2017-05-28T22:09:29.784Z,956.78
2017-05-28T22:10:29.781Z,956.79
2017-05-28T22:11:29.792Z,956.74
2017-05-28T22:12:29.798Z,956.72
2017-05-28T22:13:29.776Z,956.72
2017-05-28T22:14:29.775Z,956.68
2017-05-28T22:15:29.771Z,956.64
2017-05-28T22:16:29.770Z,956.61
2017-05-28T22:17:29.769Z,956.62
2017-05-28T22:18:29.764Z,956.64
2017-05-28T22:19:29.764Z,956.59
2017-05-28T22:20:29.762Z,956.63
2017-05-28T22:21:29.759Z,956.59
2017-05-28T22:22:29.757Z,956.62
2017-05-28T22:23:29.756Z,956.62
2017-05-28T22:24:29.755Z,956.59
2017-05-28T22:25:29.775Z,956.54
2017-05-28T22:26:29.750Z,956.51
2017-05-28T22:27:29.748Z,956.46
2017-05-28T22:28:29.748Z,956.48
2017-05-28T22:29:29.742Z,956.48
2017-05-28T22:30:29.743Z,956.41
2017-05-28T22:31:29.740Z,956.4
2017-05-28T22:32:29.830Z,956.42
2017-05-28T22:33:29.736Z,956.39
2017-05-28T22:34:29.734Z,956.38
2017-05-28T22:35:29.733Z,956.37
2017-05-28T22:36:29.740Z,956.41
2017-05-28T22:37:29.746Z,956.37
2017-05-28T22:38:29.727Z,956.36
2017-05-28T22:39:29.729Z,956.36
2017-05-28T22:40:29.721Z,956.34
2017-05-28T22:41:29.721Z,956.35
2017-05-28T22:42:29.719Z,956.33
2017-05-28T22:43:29.716Z,956.35
2017-05-28T22:44:29.714Z,956.31
2017-05-28T22:45:29.713Z,956.29
2017-05-28T22:46:29.711Z,956.3
2017-05-28T22:47:29.709Z,956.25
2017-05-28T22:48:29.705Z,956.24
2017-05-28T22:49:30.505Z,956.26
2017-05-28T22:50:29.703Z,956.2
2017-05-28T22:51:29.699Z,956.15
2017-05-28T22:52:29.696Z,956.18
2017-05-28T22:53:29.696Z,956.19
2017-05-28T22:54:29.693Z,956.18
2017-05-28T22:55:29.694Z,956.19
2017-05-28T22:56:29.739Z,956.17
2017-05-28T22:57:29.686Z,956.18
2017-05-28T22:58:29.685Z,956.21
2017-05-28T22:59:29.682Z,956.12
2017-05-28T23:00:29.827Z,956.14
2017-05-28T23:01:29.679Z,956.17
2017-05-28T23:02:29.676Z,956.14
2017-05-28T23:03:29.673Z,956.15
2017-05-28T23:04:29.672Z,956.1
2017-05-28T23:05:29.780Z,956.09
2017-05-28T23:06:29.671Z,956.16
2017-05-28T23:07:29.669Z,956.1
2017-05-28T23:08:29.663Z,956.05
2017-05-28T23:09:29.663Z,956.06
2017-05-28T23:10:29.660Z,956.05
2017-05-28T23:11:29.822Z,956.06
2017-05-28T23:12:29.663Z,956
2017-05-28T23:13:29.666Z,955.99
2017-05-28T23:14:29.650Z,956.06
2017-05-28T23:15:29.651Z,956.03
2017-05-28T23:16:29.768Z,955.98
2017-05-28T23:17:29.787Z,955.96
2017-05-28T23:18:29.644Z,955.98
2017-05-28T23:19:29.641Z,955.95
2017-05-28T23:20:29.639Z,955.99
2017-05-28T23:21:29.656Z,955.97
2017-05-28T23:22:29.745Z,955.96
2017-05-28T23:23:29.776Z,955.97
2017-05-28T23:24:29.631Z,955.93
2017-05-28T23:25:29.629Z,955.94
2017-05-28T23:26:29.627Z,955.94
2017-05-28T23:27:29.624Z,955.95
2017-05-28T23:28:29.620Z,955.94
2017-05-28T23:29:29.786Z,955.94
2017-05-28T23:30:29.773Z,955.94
2017-05-28T23:31:29.632Z,955.93
2017-05-28T23:32:29.613Z,955.9
2017-05-28T23:33:29.611Z,955.93
2017-05-28T23:34:29.616Z,955.92
2017-05-28T23:35:29.764Z,955.95
2017-05-28T23:36:29.721Z,955.95
2017-05-28T23:37:29.745Z,955.95
2017-05-28T23:38:29.600Z,955.97
2017-05-28T23:39:29.610Z,955.94
2017-05-28T23:40:29.597Z,955.97
2017-05-28T23:41:29.611Z,955.96
2017-05-28T23:42:29.590Z,955.95
2017-05-28T23:43:29.587Z,955.95
2017-05-28T23:44:29.586Z,955.96
2017-05-28T23:45:29.583Z,955.92
2017-05-28T23:46:29.581Z,955.95
2017-05-28T23:47:29.581Z,955.91
2017-05-28T23:48:29.714Z,955.94
2017-05-28T23:49:29.589Z,955.93
2017-05-28T23:50:29.618Z,955.9
2017-05-28T23:51:29.589Z,955.89
2017-05-28T23:52:29.701Z,955.87
2017-05-28T23:53:29.565Z,955.85
2017-05-28T23:54:29.562Z,955.89
2017-05-28T23:55:29.561Z,955.85
2017-05-28T23:56:29.558Z,955.82
2017-05-28T23:57:29.711Z,955.85
2017-05-28T23:58:29.581Z,955.84
2017-05-28T23:59:29.550Z,955.79
